Time;durP1;ratioP1;P1;durP2;ratioP2;P2;SDS_P1;SDS_P2;PMS_P1;PMS_P2;Temp;Humidity;BMP_temperature;BMP_pressure;BME280_temperature;BME280_humidity;BME280_pressure;Samples;Min_cycle;Max_cycle;Signal;HPM_P1;HPM_P2
2023/10/10 00:02:20;;;;;;;13.90;4.43;;;13.70;99.90;;;;;;5021868;28;20462;-78
2023/10/10 00:04:54;;;;;;;13.20;5.13;;;13.70;99.90;;;;;;5021871;28;20026;-77
2023/10/10 00:07:20;;;;;;;;;;;13.80;99.90;;;;;;5022034;28;20034;-77
2023/10/10 00:09:46;;;;;;;13.60;4.88;;;13.70;99.90;;;;;;5022440;28;19905;-76
2023/10/10 00:12:25;;;;;;;20.77;4.78;;;13.70;99.90;;;;;;5022990;28;20029;-78
2023/10/10 00:14:51;;;;;;;18.17;5.20;;;13.70;99.90;;;;;;5023190;28;20030;-76
2023/10/10 00:17:17;;;;;;;17.35;4.95;;;13.70;99.90;;;;;;5020906;28;20045;-78
2023/10/10 00:19:44;;;;;;;17.15;5.43;;;13.60;99.90;;;;;;5022207;28;20095;-77
2023/10/10 00:22:12;;;;;;;14.98;5.00;;;13.60;99.90;;;;;;5023327;28;20034;-84
2023/10/10 00:24:40;;;;;;;12.32;4.60;;;13.60;99.90;;;;;;5023464;28;20101;-77
2023/10/10 00:27:12;;;;;;;17.70;5.20;;;13.60;99.90;;;;;;5022154;28;20116;-78
2023/10/10 00:29:42;;;;;;;15.60;4.90;;;13.60;99.90;;;;;;5021343;28;20061;-78
2023/10/10 00:32:18;;;;;;;18.27;4.90;;;13.50;99.90;;;;;;5020965;28;20065;-76
2023/10/10 00:34:47;;;;;;;15.45;4.25;;;13.50;99.90;;;;;;5021604;28;20034;-78
2023/10/10 00:37:21;;;;;;;17.73;4.63;;;13.50;99.90;;;;;;5021646;28;20046;-76
2023/10/10 00:40:00;;;;;;;10.13;4.05;;;13.50;99.90;;;;;;5021610;28;20037;-78
2023/10/10 00:42:41;;;;;;;20.50;4.90;;;13.50;99.90;;;;;;5020802;28;20044;-76
2023/10/10 00:45:12;;;;;;;16.70;5.03;;;13.50;99.90;;;;;;5020647;28;20060;-80
2023/10/10 00:47:43;;;;;;;17.60;5.07;;;13.50;99.90;;;;;;5020924;28;20663;-76
2023/10/10 00:50:17;;;;;;;15.38;4.60;;;13.50;99.90;;;;;;5020673;28;20030;-76
2023/10/10 00:52:52;;;;;;;13.48;4.93;;;13.50;99.90;;;;;;5021642;28;20098;-77
2023/10/10 00:55:24;;;;;;;16.02;4.70;;;13.50;99.90;;;;;;5020881;28;20034;-78
2023/10/10 00:57:58;;;;;;;15.02;5.10;;;13.60;99.90;;;;;;5020853;28;20424;-78
2023/10/10 01:00:25;;;;;;;11.30;4.90;;;13.50;99.90;;;;;;5021119;28;20026;-77
2023/10/10 01:02:56;;;;;;;18.95;5.53;;;13.50;99.90;;;;;;5019877;28;20515;-76
2023/10/10 01:05:39;;;;;;;19.17;5.03;;;13.60;99.90;;;;;;5020486;28;20026;-76
2023/10/10 01:08:07;;;;;;;18.65;5.25;;;13.50;99.90;;;;;;5021498;28;20022;-76
2023/10/10 01:10:43;;;;;;;16.98;5.03;;;13.50;99.90;;;;;;5022565;28;20095;-76
2023/10/10 01:13:13;;;;;;;16.10;5.68;;;13.50;99.90;;;;;;5021959;28;20026;-75
2023/10/10 01:15:43;;;;;;;22.27;5.65;;;13.50;99.90;;;;;;5020691;28;20026;-76
2023/10/10 01:18:13;;;;;;;19.73;6.03;;;13.50;99.90;;;;;;5021126;28;20033;-76
2023/10/10 01:20:45;;;;;;;24.17;6.00;;;13.50;99.90;;;;;;5020818;28;20034;-76
2023/10/10 01:23:16;;;;;;;19.45;5.90;;;13.50;99.90;;;;;;5022306;28;20085;-75
2023/10/10 01:25:45;;;;;;;24.70;6.20;;;13.40;99.90;;;;;;5021426;28;20022;-77
2023/10/10 01:28:23;;;;;;;26.00;6.82;;;13.50;99.90;;;;;;5021828;28;20036;-75
2023/10/10 01:33:35;;;;;;;21.42;6.45;;;13.50;99.90;;;;;;5020703;28;20030;-78
2023/10/10 01:36:20;;;;;;;19.15;6.68;;;13.40;99.90;;;;;;5019889;28;20030;-75
2023/10/10 01:39:07;;;;;;;23.13;7.82;;;13.40;99.90;;;;;;5037337;28;20487;-75
2023/10/10 01:41:38;;;;;;;28.05;7.85;;;13.50;99.90;;;;;;5021671;28;20124;-75
2023/10/10 01:44:12;;;;;;;23.33;7.90;;;13.40;99.90;;;;;;5021192;28;20049;-75
2023/10/10 01:46:41;;;;;;;20.97;7.83;;;13.40;99.90;;;;;;5021278;28;20029;-75
2023/10/10 01:49:14;;;;;;;29.40;8.55;;;13.50;99.90;;;;;;5023058;28;20268;-76
2023/10/10 01:51:43;;;;;;;21.83;7.68;;;13.50;99.90;;;;;;5041364;28;20029;-76
2023/10/10 01:54:18;;;;;;;27.38;8.77;;;13.40;99.90;;;;;;5042565;28;20033;-76
2023/10/10 01:56:46;;;;;;;26.60;9.13;;;13.40;99.90;;;;;;5024400;28;20060;-75
2023/10/10 01:59:25;;;;;;;25.00;9.40;;;13.50;99.90;;;;;;5023817;28;20061;-76
2023/10/10 02:01:57;;;;;;;36.95;9.93;;;13.50;99.90;;;;;;5023494;28;20363;-76
2023/10/10 02:04:27;;;;;;;24.00;9.15;;;13.50;99.90;;;;;;5024141;28;20084;-76
2023/10/10 02:06:56;;;;;;;27.23;9.20;;;13.50;99.90;;;;;;5041301;28;20021;-76
2023/10/10 02:11:53;;;;;;;41.78;11.32;;;13.50;99.90;;;;;;5041317;28;20030;-75
2023/10/10 02:14:24;;;;;;;32.67;11.15;;;13.50;99.90;;;;;;5023977;28;20029;-76
2023/10/10 02:16:50;;;;;;;40.03;11.13;;;13.50;99.90;;;;;;5041522;28;20018;-77
2023/10/10 02:19:15;;;;;;;35.70;11.30;;;13.50;99.90;;;;;;5041784;28;20067;-79
2023/10/10 02:21:44;;;;;;;31.45;10.77;;;13.50;99.90;;;;;;5041776;28;20021;-75
2023/10/10 02:24:40;;;;;;;31.13;10.13;;;13.50;99.90;;;;;;5024100;28;20390;-75
2023/10/10 02:27:06;;;;;;;32.38;10.70;;;13.50;99.90;;;;;;5041192;28;20036;-74
2023/10/10 02:32:18;;;;;;;29.42;10.23;;;13.60;99.90;;;;;;5041771;28;20089;-75
2023/10/10 02:34:56;;;;;;;30.10;10.98;;;13.60;99.90;;;;;;5023998;28;20402;-77
2023/10/10 02:40:05;;;;;;;33.25;10.90;;;13.60;99.90;;;;;;5045269;28;20022;-76
2023/10/10 02:42:33;;;;;;;28.30;10.00;;;13.50;99.90;;;;;;5027331;28;20690;-74
2023/10/10 02:45:00;;;;;;;31.63;10.48;;;13.60;99.90;;;;;;5035646;28;20076;-74
2023/10/10 02:47:32;;;;;;;31.20;10.55;;;13.60;99.90;;;;;;5043575;28;20173;-75
2023/10/10 02:50:12;;;;;;;31.25;11.25;;;13.60;99.90;;;;;;5027047;28;20025;-77
2023/10/10 02:53:00;;;;;;;34.33;10.73;;;13.60;99.90;;;;;;5036018;28;20937;-77
2023/10/10 02:55:33;;;;;;;32.50;10.02;;;13.60;99.90;;;;;;5045108;28;20021;-78
2023/10/10 02:57:59;;;;;;;32.22;10.95;;;13.60;99.90;;;;;;5027030;28;20095;-77
2023/10/10 03:02:53;;;;;;;26.05;10.25;;;13.60;99.90;;;;;;5045272;28;20028;-77
2023/10/10 03:05:38;;;;;;;34.42;10.43;;;13.60;99.90;;;;;;5027244;28;20112;-77
2023/10/10 03:08:16;;;;;;;38.95;11.45;;;13.50;99.90;;;;;;5044577;28;20029;-77
2023/10/10 03:10:46;;;;;;;29.42;11.20;;;13.60;99.90;;;;;;5045385;28;20067;-77
2023/10/10 03:13:16;;;;;;;29.92;10.15;;;13.60;99.90;;;;;;5026798;28;20025;-78
2023/10/10 03:15:50;;;;;;;23.67;9.48;;;13.50;99.90;;;;;;5027285;28;20375;-76
2023/10/10 03:18:19;;;;;;;31.42;11.65;;;13.60;99.90;;;;;;5027030;28;20033;-78
2023/10/10 03:23:43;;;;;;;25.38;11.43;;;13.60;99.90;;;;;;5044598;28;20026;-78
2023/10/10 03:26:19;;;;;;;27.83;9.13;;;13.60;99.90;;;;;;5026965;28;20028;-77
2023/10/10 03:28:47;;;;;;;29.77;10.00;;;13.70;99.90;;;;;;5044355;28;20116;-76
2023/10/10 05:25:38;;;;;;;18.73;5.93;;;13.80;99.90;;;;;;5043000;28;19920;-75
2023/10/10 05:28:04;;;;;;;22.92;6.47;;;13.80;99.90;;;;;;5024923;28;20385;-74
2023/10/10 05:30:55;;;;;;;18.35;6.57;;;13.80;99.90;;;;;;5024520;28;20048;-73
2023/10/10 05:33:19;;;;;;;21.83;6.65;;;13.80;99.90;;;;;;5041677;28;20029;-73
2023/10/10 05:35:48;;;;;;;19.08;6.70;;;13.80;99.90;;;;;;5042550;28;20116;-73
2023/10/10 05:38:19;;;;;;;19.42;7.22;;;13.80;99.90;;;;;;5041122;28;20037;-74
2023/10/10 05:40:47;;;;;;;26.30;7.00;;;13.80;99.90;;;;;;5020663;28;20409;-74
2023/10/10 05:43:15;;;;;;;17.40;6.40;;;13.80;99.90;;;;;;5040366;28;20032;-75
2023/10/10 05:45:42;;;;;;;19.95;6.68;;;13.80;99.90;;;;;;5041183;28;20076;-75
2023/10/10 05:48:08;;;;;;;21.27;6.40;;;13.80;99.90;;;;;;5018264;28;20041;-74
2023/10/10 05:50:34;;;;;;;20.70;6.80;;;13.80;99.90;;;;;;5041226;28;20047;-73
2023/10/10 05:53:06;;;;;;;17.70;6.70;;;13.80;99.90;;;;;;5024179;28;20017;-75
2023/10/10 05:55:35;;;;;;;20.55;6.85;;;13.90;99.90;;;;;;5041209;28;20049;-75
2023/10/10 05:58:05;;;;;;;19.58;6.85;;;13.90;99.90;;;;;;5041257;28;20029;-75
2023/10/10 06:00:36;;;;;;;20.08;7.05;;;13.90;99.90;;;;;;5024087;28;20045;-74
2023/10/10 06:03:08;;;;;;;19.27;7.00;;;13.90;99.90;;;;;;5024826;28;20041;-74
2023/10/10 06:05:34;;;;;;;19.88;6.68;;;14.00;99.90;;;;;;5040329;28;20513;-73
2023/10/10 06:08:01;;;;;;;24.55;7.45;;;14.00;99.90;;;;;;5024919;28;20079;-74
2023/10/10 06:10:31;;;;;;;17.02;6.50;;;13.90;99.90;;;;;;5023324;28;20052;-73
2023/10/10 06:12:58;;;;;;;19.95;7.22;;;13.90;99.90;;;;;;5021627;28;20037;-73
2023/10/10 06:15:24;;;;;;;22.60;7.65;;;14.00;99.90;;;;;;5041139;28;20037;-74
2023/10/10 06:17:58;;;;;;;17.15;7.72;;;14.00;99.90;;;;;;5037350;28;20417;-75
2023/10/10 06:20:26;;;;;;;20.58;6.90;;;14.10;99.90;;;;;;5040333;28;20112;-74
2023/10/10 06:22:55;;;;;;;17.75;7.45;;;14.10;99.90;;;;;;5040582;28;20045;-74
2023/10/10 06:25:21;;;;;;;16.95;7.57;;;14.10;99.90;;;;;;5022915;28;20025;-75
2023/10/10 06:27:54;;;;;;;21.23;8.15;;;14.10;99.90;;;;;;5024068;28;20022;-75
2023/10/10 06:30:26;;;;;;;20.50;7.50;;;14.10;99.90;;;;;;5041630;28;20479;-75
2023/10/10 06:32:58;;;;;;;17.48;7.85;;;14.20;99.90;;;;;;5040954;28;20492;-74
2023/10/10 06:35:27;;;;;;;18.58;8.20;;;14.20;99.90;;;;;;5041636;28;20025;-75
2023/10/10 06:37:52;;;;;;;23.17;7.95;;;14.30;99.90;;;;;;5040894;28;20417;-74
2023/10/10 06:40:30;;;;;;;21.67;7.55;;;14.30;99.90;;;;;;5041340;28;20032;-74
2023/10/10 06:42:56;;;;;;;19.48;7.88;;;14.30;99.90;;;;;;5041301;28;20021;-74
2023/10/10 06:45:31;;;;;;;19.80;8.32;;;14.30;99.90;;;;;;5041541;28;20018;-74
2023/10/10 06:47:56;;;;;;;19.67;8.38;;;14.30;99.90;;;;;;5023393;28;20049;-74
2023/10/10 06:50:22;;;;;;;23.52;8.73;;;14.30;99.90;;;;;;5023725;28;20021;-75
2023/10/10 06:52:52;;;;;;;20.05;8.32;;;14.40;99.90;;;;;;5041492;28;20485;-77
2023/10/10 06:55:22;;;;;;;17.67;8.07;;;14.40;99.90;;;;;;5041108;28;20040;-76
2023/10/10 06:57:58;;;;;;;16.17;8.63;;;14.40;99.90;;;;;;5023599;28;20060;-75
2023/10/10 07:00:28;;;;;;;21.95;8.43;;;14.50;99.90;;;;;;5023298;28;20036;-76
2023/10/10 07:02:57;;;;;;;16.40;8.23;;;14.50;99.90;;;;;;5040965;28;20033;-75
2023/10/10 07:05:27;;;;;;;19.80;8.32;;;14.50;99.90;;;;;;5020989;28;20030;-75
2023/10/10 07:08:12;;;;;;;21.27;8.90;;;14.60;99.90;;;;;;5040193;28;20058;-75
2023/10/10 07:10:41;;;;;;;20.33;8.40;;;14.60;99.90;;;;;;5022754;28;20071;-76
2023/10/10 07:13:13;;;;;;;17.92;8.73;;;14.60;99.90;;;;;;5039661;28;20038;-74
2023/10/10 07:15:39;;;;;;;24.55;9.32;;;14.70;99.90;;;;;;5038942;28;20022;-74
2023/10/10 07:18:09;;;;;;;20.05;9.35;;;14.70;99.90;;;;;;5021551;28;20056;-74
2023/10/10 07:23:24;;;;;;;23.52;9.18;;;14.80;99.90;;;;;;5042875;28;20052;-74
2023/10/10 07:25:59;;;;;;;18.15;9.20;;;14.80;99.90;;;;;;5027392;28;20463;-76
2023/10/10 07:28:29;;;;;;;20.77;9.85;;;14.80;99.90;;;;;;5026375;28;20038;-74
2023/10/10 07:30:55;;;;;;;19.88;9.60;;;14.80;99.90;;;;;;5043925;28;20021;-76
2023/10/10 07:33:29;;;;;;;21.38;10.23;;;14.90;99.90;;;;;;5044462;28;20014;-74
2023/10/10 07:35:55;;;;;;;30.10;10.57;;;14.90;99.90;;;;;;5044295;28;20029;-74
2023/10/10 07:38:29;;;;;;;23.77;10.05;;;14.90;99.90;;;;;;5025155;28;20052;-76
2023/10/10 07:40:54;;;;;;;21.23;10.25;;;14.90;99.90;;;;;;5043559;28;20041;-75
2023/10/10 07:43:26;;;;;;;23.65;10.20;;;14.90;99.90;;;;;;5025712;28;20029;-74
2023/10/10 07:45:54;;;;;;;21.70;10.10;;;15.00;99.90;;;;;;5042267;28;20045;-74
2023/10/10 07:48:38;;;;;;;25.15;10.50;;;15.00;99.90;;;;;;5043093;28;20045;-75
2023/10/10 07:51:07;;;;;;;18.90;9.85;;;15.00;99.90;;;;;;5025314;28;20034;-76
2023/10/10 07:53:41;;;;;;;17.40;9.95;;;15.00;99.90;;;;;;5041803;28;20033;-75
2023/10/10 07:56:07;;;;;;;25.25;10.13;;;15.00;99.90;;;;;;5026457;28;20029;-75
2023/10/10 07:58:56;;;;;;;18.90;10.05;;;15.10;99.90;;;;;;5025764;28;20084;-76
2023/10/10 08:01:23;;;;;;;19.85;10.10;;;15.10;99.90;;;;;;5025408;28;20026;-76
2023/10/10 08:03:49;;;;;;;23.38;10.52;;;15.20;99.90;;;;;;5043071;28;20064;-76
2023/10/10 08:06:25;;;;;;;22.95;10.43;;;15.20;99.90;;;;;;5041307;28;20029;-77
2023/10/10 08:11:37;;;;;;;24.92;11.35;;;15.30;99.90;;;;;;5041419;28;20092;-76
2023/10/10 08:14:07;;;;;;;29.70;15.00;;;15.30;99.90;;;;;;5020355;28;20029;-76
2023/10/10 08:16:38;;;;;;;28.23;16.30;;;15.30;99.90;;;;;;5040853;28;20034;-78
2023/10/10 08:19:15;;;;;;;33.80;16.67;;;15.30;99.90;;;;;;5025736;28;20037;-76
2023/10/10 08:21:50;;;;;;;29.67;18.40;;;15.30;99.90;;;;;;5042941;28;20025;-76
2023/10/10 08:24:15;;;;;;;31.88;19.10;;;15.40;99.90;;;;;;5044076;28;20043;-77
2023/10/10 08:26:42;;;;;;;31.88;18.75;;;15.40;99.90;;;;;;5032888;28;20104;-75
2023/10/10 08:29:08;;;;;;;30.85;15.40;;;15.50;99.90;;;;;;5025811;28;20841;-75
2023/10/10 08:31:36;;;;;;;27.10;16.17;;;15.50;99.90;;;;;;5025631;28;20030;-76
2023/10/10 08:34:03;;;;;;;23.50;12.50;;;15.60;99.90;;;;;;5024860;28;20029;-75
2023/10/10 08:36:29;;;;;;;20.90;12.27;;;15.70;99.90;;;;;;5043188;28;20026;-75
2023/10/10 08:39:17;;;;;;;23.00;11.88;;;15.70;99.90;;;;;;5018968;28;20486;-76
2023/10/10 08:41:44;;;;;;;21.30;11.35;;;15.80;99.90;;;;;;5022842;28;20029;-76
2023/10/10 08:44:14;;;;;;;20.13;10.48;;;15.80;99.90;;;;;;5024528;28;20035;-76
2023/10/10 08:46:41;;;;;;;19.92;10.63;;;15.80;99.90;;;;;;5022277;28;20064;-76
2023/10/10 08:49:08;;;;;;;18.35;10.90;;;15.90;99.90;;;;;;5019006;28;20043;-76
2023/10/10 08:51:35;;;;;;;23.30;11.50;;;15.90;99.90;;;;;;5039240;28;20040;-76
2023/10/10 08:54:02;;;;;;;18.67;11.52;;;16.00;99.90;;;;;;5042246;28;20033;-76
2023/10/10 08:56:37;;;;;;;27.25;12.23;;;16.10;99.90;;;;;;5024174;28;20071;-76
2023/10/10 08:59:06;;;;;;;20.25;11.10;;;16.10;99.90;;;;;;5041492;28;20041;-77
2023/10/10 09:01:39;;;;;;;20.83;11.18;;;16.20;99.90;;;;;;5032041;28;20394;-73
2023/10/10 09:04:05;;;;;;;23.65;11.20;;;16.20;99.90;;;;;;5043120;28;20022;-78
2023/10/10 09:06:45;;;;;;;21.90;11.50;;;16.40;99.90;;;;;;5025138;28;20853;-77
2023/10/10 09:11:56;;;;;;;23.02;10.90;;;16.70;99.90;;;;;;5041892;28;20056;-77
2023/10/10 09:14:55;;;;;;;19.33;11.60;;;16.90;99.90;;;;;;5040511;28;20512;-77
2023/10/10 09:17:35;;;;;;;18.63;9.90;;;17.00;99.90;;;;;;4994985;28;20161;-77
2023/10/10 09:20:17;;;;;;;18.75;10.52;;;17.00;99.90;;;;;;5040949;28;20025;-79
2023/10/10 09:22:44;;;;;;;16.70;10.25;;;17.10;99.90;;;;;;5032507;28;20022;-77
2023/10/10 09:25:31;;;;;;;21.45;12.43;;;17.10;99.90;;;;;;5041678;28;20041;-78
2023/10/10 09:28:04;;;;;;;21.27;12.38;;;17.10;99.90;;;;;;5023554;28;20057;-74
2023/10/10 09:30:34;;;;;;;22.98;13.65;;;17.10;99.90;;;;;;5038760;28;20044;-76
2023/10/10 09:35:49;;;;;;;23.98;13.68;;;16.90;99.90;;;;;;5041139;28;20059;-79
2023/10/10 09:38:21;;;;;;;24.15;14.35;;;16.90;99.90;;;;;;5022707;28;20111;-79
2023/10/10 09:40:48;;;;;;;29.15;15.70;;;16.90;99.90;;;;;;5024171;28;20101;-77
2023/10/10 09:43:25;;;;;;;30.42;15.65;;;17.00;99.90;;;;;;5040256;28;20048;-77
2023/10/10 09:46:10;;;;;;;31.42;16.00;;;17.10;99.90;;;;;;5040009;28;20017;-75
2023/10/10 09:52:47;;;;;;;30.83;16.25;;;17.50;99.90;;;;;;5040173;28;20034;-76
2023/10/10 09:54:18;;;;;;;24.35;14.48;;;17.60;99.90;;;;;;5039028;28;20124;-78
2023/10/10 09:56:48;;;;;;;24.15;15.23;;;17.80;99.90;;;;;;5023571;28;20025;-79
2023/10/10 09:59:16;;;;;;;21.88;14.52;;;17.90;99.90;;;;;;5030349;28;20040;-75
2023/10/10 10:01:46;;;;;;;27.50;15.48;;;17.90;99.90;;;;;;5041495;28;20116;-74
2023/10/10 10:04:18;;;;;;;28.27;16.17;;;17.80;99.90;;;;;;5021904;28;20061;-75
2023/10/10 10:07:12;;;;;;;25.92;14.70;;;17.80;99.90;;;;;;5041377;28;20021;-72
2023/10/10 10:09:53;;;;;;;21.45;14.32;;;17.70;99.90;;;;;;5023909;28;20025;-77
2023/10/10 10:12:43;;;;;;;26.65;14.32;;;17.60;99.90;;;;;;5022604;28;20479;-79
2023/10/10 10:15:57;;;;;;;28.80;14.18;;;17.60;99.90;;;;;;5039324;28;20156;-76
2023/10/10 10:18:29;;;;;;;24.83;14.40;;;17.60;99.90;;;;;;5000646;28;20084;-79
2023/10/10 10:23:44;;;;;;;22.95;13.00;;;17.70;99.90;;;;;;5034467;28;20037;-71
2023/10/10 10:26:11;;;;;;;23.42;14.48;;;17.60;99.90;;;;;;5023046;28;20375;-79
2023/10/10 10:28:41;;;;;;;25.88;14.82;;;17.50;99.90;;;;;;5033945;28;20033;-76
2023/10/10 10:31:16;;;;;;;26.80;14.68;;;17.50;99.90;;;;;;5033839;28;20047;-73
2023/10/10 10:34:23;;;;;;;26.15;15.50;;;17.50;99.90;;;;;;5029511;28;20033;-74
2023/10/10 10:37:02;;;;;;;26.55;16.38;;;17.50;99.90;;;;;;5041344;28;20025;-75
2023/10/10 10:39:35;;;;;;;23.60;15.35;;;17.50;99.90;;;;;;5022909;28;20028;-75
2023/10/10 10:42:02;;;;;;;25.65;15.18;;;17.60;99.90;;;;;;5040383;28;20022;-75
2023/10/10 10:44:44;;;;;;;30.38;15.57;;;17.60;99.90;;;;;;5022912;28;20026;-77
2023/10/10 10:47:35;;;;;;;27.65;16.35;;;17.70;99.90;;;;;;5040092;28;20052;-78
2023/10/10 10:50:17;;;;;;;28.67;17.13;;;17.70;99.90;;;;;;5038524;28;20022;-79
2023/10/10 10:52:58;;;;;;;32.15;16.55;;;17.70;99.90;;;;;;5037502;28;20025;-79
2023/10/10 10:58:59;;;;;;;31.42;16.17;;;17.70;99.90;;;;;;5118247;28;20104;-69
2023/10/10 11:01:24;;;;;;;25.85;16.30;;;17.60;99.90;;;;;;5119077;27;20032;-71
2023/10/10 11:03:54;;;;;;;28.08;18.55;;;17.50;99.90;;;;;;5119847;28;20028;-76
2023/10/10 11:06:21;;;;;;;34.20;17.15;;;17.50;99.90;;;;;;5118271;28;20032;-75
2023/10/10 11:11:36;;;;;;;40.97;18.92;;;17.40;99.90;;;;;;5120406;28;20380;-75
2023/10/10 11:14:10;;;;;;;36.83;20.77;;;17.30;99.90;;;;;;5118625;28;20032;-75
2023/10/10 11:16:46;;;;;;;36.97;21.65;;;17.30;99.90;;;;;;5119463;28;20070;-76
2023/10/10 11:22:00;;;;;;;38.05;22.08;;;17.20;99.90;;;;;;5119585;28;20019;-74
2023/10/10 11:24:29;;;;;;;45.85;22.77;;;17.20;99.90;;;;;;5117688;28;20028;-74
2023/10/10 11:29:29;;;;;;;;;;;17.40;99.90;;;;;;5119276;28;20036;-76
2023/10/10 11:32:08;;;;;;;39.88;23.52;;;17.40;99.90;;;;;;5118739;28;19904;-78
2023/10/10 11:34:46;;;;;;;46.83;26.35;;;17.40;99.90;;;;;;5117924;28;20044;-74
2023/10/10 11:37:32;;;;;;;51.47;28.08;;;17.40;99.90;;;;;;5119280;28;20020;-71
2023/10/10 11:40:30;;;;;;;51.63;28.75;;;17.40;99.90;;;;;;5119551;28;20022;-78
2023/10/10 11:43:13;;;;;;;48.75;27.20;;;17.40;99.90;;;;;;5117547;28;20024;-75
2023/10/10 11:45:39;;;;;;;51.08;28.17;;;17.40;99.90;;;;;;5119875;28;20509;-77
2023/10/10 11:48:13;;;;;;;49.45;27.85;;;17.40;99.90;;;;;;5117831;28;20122;-72
2023/10/10 11:50:48;;;;;;;53.85;29.52;;;17.40;99.90;;;;;;5117807;28;20077;-76
2023/10/10 11:53:19;;;;;;;53.40;28.45;;;17.50;99.90;;;;;;5117555;28;20039;-75
2023/10/10 11:55:47;;;;;;;54.00;28.80;;;17.50;99.90;;;;;;5116959;28;20098;-72
2023/10/10 11:58:18;;;;;;;57.20;29.67;;;17.60;99.90;;;;;;5118335;28;20020;-76
2023/10/10 12:01:03;;;;;;;53.30;27.60;;;17.60;99.90;;;;;;5116696;28;20024;-76
2023/10/10 12:03:41;;;;;;;59.55;30.35;;;17.80;99.90;;;;;;5114783;28;20377;-73
2023/10/10 12:06:14;;;;;;;48.47;26.73;;;17.90;99.90;;;;;;5110372;28;20028;-77
2023/10/10 12:08:45;;;;;;;52.25;26.13;;;18.10;99.90;;;;;;5104017;28;20027;-76
2023/10/10 12:11:12;;;;;;;50.28;26.48;;;18.30;99.90;;;;;;5104899;28;20091;-73
2023/10/10 12:13:38;;;;;;;52.30;25.63;;;18.40;99.90;;;;;;5104813;28;20632;-72
2023/10/10 12:16:10;;;;;;;52.25;26.33;;;18.40;99.90;;;;;;5103811;28;20024;-74
2023/10/10 12:18:43;;;;;;;49.78;26.58;;;18.40;99.90;;;;;;5103205;28;20024;-76
2023/10/10 12:21:10;;;;;;;52.03;26.77;;;18.50;99.90;;;;;;5105217;28;20089;-75
2023/10/10 12:23:36;;;;;;;56.60;27.08;;;18.50;99.90;;;;;;5102851;28;20050;-72
2023/10/10 12:26:04;;;;;;;48.50;25.95;;;18.50;99.90;;;;;;5101552;28;20062;-78
2023/10/10 12:28:30;;;;;;;57.53;26.60;;;18.40;99.90;;;;;;5103159;28;20040;-79
2023/10/10 12:31:02;;;;;;;51.22;25.90;;;18.40;99.90;;;;;;5101810;28;20027;-73
2023/10/10 12:33:28;;;;;;;50.97;26.88;;;18.40;99.90;;;;;;5100950;28;20481;-78
2023/10/10 12:35:56;;;;;;;55.60;27.75;;;18.50;99.90;;;;;;5102099;28;20095;-74
2023/10/10 12:38:22;;;;;;;50.80;26.35;;;18.50;99.90;;;;;;5103373;28;20016;-77
2023/10/10 12:40:52;;;;;;;51.72;26.95;;;18.60;99.90;;;;;;5099139;28;20102;-75
2023/10/10 12:43:18;;;;;;;53.70;27.90;;;18.60;99.90;;;;;;5103154;28;20028;-73
2023/10/10 12:45:47;;;;;;;51.78;27.08;;;18.60;99.90;;;;;;5102878;28;20114;-76
2023/10/10 12:48:14;;;;;;;58.05;27.92;;;18.60;99.90;;;;;;5097639;28;20032;-73
2023/10/10 12:50:46;;;;;;;52.58;27.75;;;18.80;99.90;;;;;;5098988;28;20039;-76
2023/10/10 12:53:39;;;;;;;53.28;27.60;;;19.00;99.90;;;;;;5100747;28;20036;-78
2023/10/10 12:56:05;;;;;;;53.20;24.70;;;19.10;99.90;;;;;;5101465;28;20032;-70
2023/10/10 12:58:32;;;;;;;49.60;26.65;;;19.10;99.90;;;;;;5102638;28;20461;-77
2023/10/10 13:00:59;;;;;;;54.55;26.85;;;19.00;99.90;;;;;;5103042;28;20024;-75
2023/10/10 13:03:30;;;;;;;56.20;28.52;;;19.00;99.90;;;;;;5101020;28;20035;-81
2023/10/10 13:06:00;;;;;;;52.55;28.10;;;18.80;99.90;;;;;;5101676;28;20039;-74
2023/10/10 13:08:39;;;;;;;53.10;28.67;;;18.70;99.90;;;;;;5102756;28;20024;-77
2023/10/10 13:11:14;;;;;;;53.88;28.55;;;18.60;99.90;;;;;;5102881;28;20053;-74
2023/10/10 13:13:45;;;;;;;53.38;28.33;;;18.50;99.90;;;;;;5099826;28;20091;-80
2023/10/10 13:16:52;;;;;;;60.97;29.35;;;18.40;99.90;;;;;;5101332;28;20085;-76
2023/10/10 13:19:14;;;;;;;59.13;28.95;;;18.30;99.90;;;;;;5099065;28;20119;-76
2023/10/10 13:21:43;;;;;;;62.90;31.70;;;18.30;99.90;;;;;;5101859;28;20039;-76
2023/10/10 13:24:11;;;;;;;63.85;33.10;;;18.20;99.90;;;;;;5097886;28;20036;-76
2023/10/10 13:26:38;;;;;;;67.97;32.30;;;18.20;99.90;;;;;;5099115;28;22377;-76
2023/10/10 13:29:05;;;;;;;74.78;32.03;;;18.20;99.90;;;;;;5094317;28;20036;-74
2023/10/10 13:31:31;;;;;;;67.55;32.90;;;18.20;99.90;;;;;;5098096;28;20144;-76
2023/10/10 13:34:04;;;;;;;67.78;33.35;;;18.20;99.90;;;;;;5092018;28;20040;-81
2023/10/10 13:36:32;;;;;;;62.30;31.25;;;18.20;99.90;;;;;;5096160;28;20382;-77
2023/10/10 13:38:59;;;;;;;67.07;34.42;;;18.20;99.90;;;;;;5101576;28;20020;-76
2023/10/10 13:41:29;;;;;;;70.13;34.70;;;18.10;99.90;;;;;;5101717;28;20012;-75
2023/10/10 13:44:03;;;;;;;70.55;33.95;;;18.10;99.90;;;;;;5101070;28;20071;-75
2023/10/10 13:46:32;;;;;;;74.85;34.55;;;18.10;99.90;;;;;;5102782;28;20061;-77
2023/10/10 13:48:58;;;;;;;75.53;35.20;;;18.10;99.90;;;;;;5102013;28;20035;-76
2023/10/10 13:51:27;;;;;;;77.00;35.80;;;18.10;99.90;;;;;;5102816;28;20074;-77
2023/10/10 13:53:56;;;;;;;71.47;34.00;;;18.10;99.90;;;;;;5102287;28;20052;-76
2023/10/10 13:56:22;;;;;;;79.43;35.42;;;18.10;99.90;;;;;;5100985;28;20020;-79
2023/10/10 13:58:48;;;;;;;75.63;34.90;;;18.10;99.90;;;;;;5101482;28;20085;-76
2023/10/10 14:01:18;;;;;;;74.38;36.10;;;18.10;99.90;;;;;;5102613;28;20024;-76
2023/10/10 14:03:45;;;;;;;73.70;34.65;;;18.10;99.90;;;;;;5101586;28;20031;-76
2023/10/10 14:06:20;;;;;;;76.25;36.35;;;18.10;99.90;;;;;;5102762;28;20382;-79
2023/10/10 14:08:49;;;;;;;73.60;36.28;;;18.20;99.90;;;;;;5100972;28;20087;-78
2023/10/10 14:11:24;;;;;;;70.68;35.88;;;18.10;99.90;;;;;;5100818;28;20519;-83
2023/10/10 14:13:52;;;;;;;77.85;36.80;;;18.10;99.90;;;;;;5100572;28;20065;-77
2023/10/10 14:16:18;;;;;;;75.35;36.13;;;18.10;99.90;;;;;;5100731;28;20040;-73
2023/10/10 14:18:49;;;;;;;85.00;37.85;;;18.10;99.90;;;;;;5101145;28;20484;-76
2023/10/10 14:21:27;;;;;;;75.25;36.72;;;18.10;99.90;;;;;;5102163;28;20115;-74
2023/10/10 14:24:04;;;;;;;82.20;37.22;;;18.10;99.90;;;;;;5100423;28;20032;-77
2023/10/10 14:26:33;;;;;;;83.00;37.08;;;18.10;99.90;;;;;;5102618;28;20023;-75
2023/10/10 14:29:04;;;;;;;83.60;39.00;;;18.10;99.90;;;;;;5100152;28;20028;-77
2023/10/10 14:31:31;;;;;;;77.88;35.80;;;18.10;99.90;;;;;;5101713;28;20565;-77
2023/10/10 14:34:00;;;;;;;79.80;37.92;;;18.10;99.90;;;;;;5101332;28;20034;-76
2023/10/10 14:36:27;;;;;;;80.82;38.83;;;18.00;99.90;;;;;;5101604;28;20414;-74
2023/10/10 14:38:53;;;;;;;82.50;38.13;;;18.00;99.90;;;;;;5101749;28;20020;-73
2023/10/10 14:41:20;;;;;;;85.63;39.38;;;18.00;99.90;;;;;;5100817;28;20050;-75
2023/10/10 14:43:49;;;;;;;85.53;38.38;;;18.00;99.90;;;;;;5100563;28;20086;-75
2023/10/10 14:46:21;;;;;;;81.03;37.42;;;18.00;99.90;;;;;;5100106;28;20036;-75
2023/10/10 14:49:06;;;;;;;87.13;38.53;;;18.00;99.90;;;;;;5100430;28;20038;-76
2023/10/10 14:51:38;;;;;;;78.35;36.83;;;18.00;99.90;;;;;;5100052;28;20070;-77
2023/10/10 14:54:11;;;;;;;87.78;39.47;;;18.00;99.90;;;;;;5101360;28;20059;-75
2023/10/10 14:56:46;;;;;;;86.93;38.67;;;18.00;99.90;;;;;;5100611;28;20028;-79
2023/10/10 14:59:17;;;;;;;80.85;38.05;;;18.00;99.90;;;;;;5101002;28;20013;-75
2023/10/10 15:01:48;;;;;;;93.25;40.90;;;18.00;99.90;;;;;;5094731;28;20108;-74
2023/10/10 15:04:18;;;;;;;86.22;38.88;;;18.00;99.90;;;;;;5099691;28;20020;-77
2023/10/10 15:06:48;;;;;;;91.55;40.33;;;18.00;99.90;;;;;;5100102;28;20028;-78
2023/10/10 15:09:14;;;;;;;88.57;40.65;;;18.00;99.90;;;;;;5101553;28;20020;-74
2023/10/10 15:11:41;;;;;;;89.63;42.03;;;18.10;99.90;;;;;;5100813;28;20110;-76
2023/10/10 15:14:12;;;;;;;85.78;41.28;;;18.10;99.90;;;;;;5099583;28;20103;-78
2023/10/10 15:16:38;;;;;;;91.75;41.33;;;18.10;99.90;;;;;;5100349;28;20036;-78
2023/10/10 15:19:08;;;;;;;106.10;43.08;;;18.10;99.90;;;;;;5101814;28;20042;-73
2023/10/10 15:21:35;;;;;;;96.63;43.78;;;18.10;99.90;;;;;;5100076;28;20102;-74
2023/10/10 15:24:02;;;;;;;96.00;43.13;;;18.10;99.90;;;;;;5100895;28;20024;-78
2023/10/10 15:26:28;;;;;;;102.72;43.65;;;18.00;99.90;;;;;;5099406;28;20468;-77
2023/10/10 15:28:59;;;;;;;95.57;42.72;;;18.00;99.90;;;;;;5099776;28;20038;-74
2023/10/10 15:31:31;;;;;;;92.93;42.25;;;18.00;99.90;;;;;;5098724;28;20361;-77
2023/10/10 15:33:58;;;;;;;83.10;39.67;;;18.00;99.90;;;;;;5100072;28;20059;-78